sensor_id;sensor_type;location;lat;lon;timestamp;temperature;humidity
64855;DHT22;51321;50.428;8.378;2022-12-04T00:00:23;1.40;99.90
64855;DHT22;51321;50.428;8.378;2022-12-04T00:02:46;1.40;99.90
64855;DHT22;51321;50.428;8.378;2022-12-04T00:05:09;1.30;99.90
64855;DHT22;51321;50.428;8.378;2022-12-04T00:07:34;1.30;99.90
64855;DHT22;51321;50.428;8.378;2022-12-04T00:09:57;1.30;99.90
64855;DHT22;51321;50.428;8.378;2022-12-04T00:12:20;1.30;99.90
64855;DHT22;51321;50.428;8.378;2022-12-04T00:14:42;1.40;99.90
64855;DHT22;51321;50.428;8.378;2022-12-04T00:17:04;1.40;99.90
64855;DHT22;51321;50.428;8.378;2022-12-04T00:19:30;1.50;99.90
64855;DHT22;51321;50.428;8.378;2022-12-04T00:21:52;1.40;99.90
64855;DHT22;51321;50.428;8.378;2022-12-04T00:24:15;1.50;99.90
64855;DHT22;51321;50.428;8.378;2022-12-04T00:26:37;1.50;99.90
64855;DHT22;51321;50.428;8.378;2022-12-04T00:29:00;1.50;99.90
64855;DHT22;51321;50.428;8.378;2022-12-04T00:31:24;1.50;99.90
64855;DHT22;51321;50.428;8.378;2022-12-04T00:33:47;1.40;99.90
64855;DHT22;51321;50.428;8.378;2022-12-04T00:36:13;1.40;99.90
64855;DHT22;51321;50.428;8.378;2022-12-04T00:38:37;1.50;99.90
64855;DHT22;51321;50.428;8.378;2022-12-04T00:41:06;1.40;99.90
64855;DHT22;51321;50.428;8.378;2022-12-04T00:43:30;1.40;99.90
64855;DHT22;51321;50.428;8.378;2022-12-04T00:45:53;1.40;99.90
64855;DHT22;51321;50.428;8.378;2022-12-04T00:48:15;1.40;99.90
64855;DHT22;51321;50.428;8.378;2022-12-04T00:50:38;1.40;99.90
64855;DHT22;51321;50.428;8.378;2022-12-04T00:53:02;1.40;99.90
64855;DHT22;51321;50.428;8.378;2022-12-04T00:55:24;1.40;99.90
64855;DHT22;51321;50.428;8.378;2022-12-04T00:57:47;1.40;99.90
64855;DHT22;51321;50.428;8.378;2022-12-04T01:00:09;1.40;99.90
64855;DHT22;51321;50.428;8.378;2022-12-04T01:02:32;1.50;99.90
64855;DHT22;51321;50.428;8.378;2022-12-04T01:04:54;1.50;99.90
64855;DHT22;51321;50.428;8.378;2022-12-04T01:07:17;1.50;99.90
64855;DHT22;51321;50.428;8.378;2022-12-04T01:09:41;1.40;99.90
64855;DHT22;51321;50.428;8.378;2022-12-04T01:12:05;1.40;99.90
64855;DHT22;51321;50.428;8.378;2022-12-04T01:14:27;1.40;99.90
64855;DHT22;51321;50.428;8.378;2022-12-04T01:16:49;1.40;99.90
64855;DHT22;51321;50.428;8.378;2022-12-04T01:19:12;1.50;99.90
64855;DHT22;51321;50.428;8.378;2022-12-04T01:21:36;1.50;99.90
64855;DHT22;51321;50.428;8.378;2022-12-04T01:24:02;1.50;99.90
64855;DHT22;51321;50.428;8.378;2022-12-04T01:26:29;1.40;99.90
64855;DHT22;51321;50.428;8.378;2022-12-04T01:28:52;1.40;99.90
64855;DHT22;51321;50.428;8.378;2022-12-04T01:31:16;1.40;99.90
64855;DHT22;51321;50.428;8.378;2022-12-04T01:33:40;1.40;99.90
64855;DHT22;51321;50.428;8.378;2022-12-04T01:36:04;1.30;99.90
64855;DHT22;51321;50.428;8.378;2022-12-04T01:38:29;1.40;99.90
64855;DHT22;51321;50.428;8.378;2022-12-04T01:40:53;1.40;99.90
64855;DHT22;51321;50.428;8.378;2022-12-04T01:43:21;1.40;99.90
64855;DHT22;51321;50.428;8.378;2022-12-04T01:45:46;1.30;99.90
64855;DHT22;51321;50.428;8.378;2022-12-04T01:48:19;1.30;99.90
64855;DHT22;51321;50.428;8.378;2022-12-04T01:50:45;1.30;99.90
64855;DHT22;51321;50.428;8.378;2022-12-04T01:53:09;1.30;99.90
64855;DHT22;51321;50.428;8.378;2022-12-04T01:55:32;1.30;99.90
64855;DHT22;51321;50.428;8.378;2022-12-04T01:57:57;1.30;99.90
64855;DHT22;51321;50.428;8.378;2022-12-04T02:00:22;1.40;99.90
64855;DHT22;51321;50.428;8.378;2022-12-04T02:02:46;1.30;99.90
64855;DHT22;51321;50.428;8.378;2022-12-04T02:05:10;1.30;99.90
64855;DHT22;51321;50.428;8.378;2022-12-04T02:07:34;1.30;99.90
64855;DHT22;51321;50.428;8.378;2022-12-04T02:10:00;1.30;99.90
64855;DHT22;51321;50.428;8.378;2022-12-04T02:12:32;1.30;99.90
64855;DHT22;51321;50.428;8.378;2022-12-04T02:15:06;1.30;99.90
64855;DHT22;51321;50.428;8.378;2022-12-04T02:17:38;1.30;99.90
64855;DHT22;51321;50.428;8.378;2022-12-04T02:20:17;1.30;99.90
64855;DHT22;51321;50.428;8.378;2022-12-04T02:23:13;1.30;99.90
64855;DHT22;51321;50.428;8.378;2022-12-04T02:25:47;1.30;99.90
64855;DHT22;51321;50.428;8.378;2022-12-04T02:28:17;1.30;99.90
64855;DHT22;51321;50.428;8.378;2022-12-04T02:30:44;1.40;99.90
64855;DHT22;51321;50.428;8.378;2022-12-04T02:33:11;1.40;99.90
64855;DHT22;51321;50.428;8.378;2022-12-04T02:35:41;1.40;99.90
64855;DHT22;51321;50.428;8.378;2022-12-04T02:38:10;1.30;99.90
64855;DHT22;51321;50.428;8.378;2022-12-04T02:40:40;1.30;99.90
64855;DHT22;51321;50.428;8.378;2022-12-04T02:43:08;1.40;99.90
64855;DHT22;51321;50.428;8.378;2022-12-04T02:45:40;1.40;99.90
64855;DHT22;51321;50.428;8.378;2022-12-04T02:48:07;1.30;99.90
64855;DHT22;51321;50.428;8.378;2022-12-04T02:50:32;1.30;99.90
64855;DHT22;51321;50.428;8.378;2022-12-04T02:53:00;1.30;99.90
64855;DHT22;51321;50.428;8.378;2022-12-04T02:55:28;1.30;99.90
64855;DHT22;51321;50.428;8.378;2022-12-04T02:57:56;1.30;99.90
64855;DHT22;51321;50.428;8.378;2022-12-04T03:00:22;1.30;99.90
64855;DHT22;51321;50.428;8.378;2022-12-04T03:02:52;1.30;99.90
64855;DHT22;51321;50.428;8.378;2022-12-04T03:05:17;1.30;99.90
64855;DHT22;51321;50.428;8.378;2022-12-04T03:07:44;1.30;99.90
64855;DHT22;51321;50.428;8.378;2022-12-04T03:10:12;1.30;99.90
64855;DHT22;51321;50.428;8.378;2022-12-04T03:12:39;1.30;99.90
64855;DHT22;51321;50.428;8.378;2022-12-04T03:15:06;1.30;99.90
64855;DHT22;51321;50.428;8.378;2022-12-04T03:17:33;1.30;99.90
64855;DHT22;51321;50.428;8.378;2022-12-04T03:20:04;1.20;99.90
64855;DHT22;51321;50.428;8.378;2022-12-04T03:22:35;1.30;99.90
64855;DHT22;51321;50.428;8.378;2022-12-04T03:24:59;1.30;99.90
64855;DHT22;51321;50.428;8.378;2022-12-04T03:27:31;1.40;99.90
64855;DHT22;51321;50.428;8.378;2022-12-04T03:30:00;1.40;99.90
64855;DHT22;51321;50.428;8.378;2022-12-04T03:32:26;1.40;99.90
64855;DHT22;51321;50.428;8.378;2022-12-04T03:34:56;1.30;99.90
64855;DHT22;51321;50.428;8.378;2022-12-04T03:37:27;1.40;99.90
64855;DHT22;51321;50.428;8.378;2022-12-04T03:39:57;1.40;99.90
64855;DHT22;51321;50.428;8.378;2022-12-04T03:42:24;1.40;99.90
64855;DHT22;51321;50.428;8.378;2022-12-04T03:44:51;1.40;99.90
64855;DHT22;51321;50.428;8.378;2022-12-04T03:47:21;1.40;99.90
64855;DHT22;51321;50.428;8.378;2022-12-04T03:49:54;1.40;99.90
64855;DHT22;51321;50.428;8.378;2022-12-04T03:52:29;1.30;99.90
64855;DHT22;51321;50.428;8.378;2022-12-04T03:54:56;1.30;99.90
64855;DHT22;51321;50.428;8.378;2022-12-04T03:57:26;1.30;99.90
64855;DHT22;51321;50.428;8.378;2022-12-04T03:59:53;1.30;99.90
64855;DHT22;51321;50.428;8.378;2022-12-04T04:02:19;1.40;99.90
64855;DHT22;51321;50.428;8.378;2022-12-04T04:04:50;1.30;99.90
64855;DHT22;51321;50.428;8.378;2022-12-04T04:07:19;1.30;99.90
64855;DHT22;51321;50.428;8.378;2022-12-04T04:09:46;1.20;99.90
64855;DHT22;51321;50.428;8.378;2022-12-04T04:12:15;1.30;99.90
64855;DHT22;51321;50.428;8.378;2022-12-04T04:14:47;1.30;99.90
64855;DHT22;51321;50.428;8.378;2022-12-04T04:17:28;1.20;99.90
64855;DHT22;51321;50.428;8.378;2022-12-04T04:20:14;1.20;99.90
64855;DHT22;51321;50.428;8.378;2022-12-04T04:22:57;1.30;99.90
64855;DHT22;51321;50.428;8.378;2022-12-04T04:25:44;1.30;99.90
64855;DHT22;51321;50.428;8.378;2022-12-04T04:28:26;1.20;99.90
64855;DHT22;51321;50.428;8.378;2022-12-04T04:30:49;1.10;99.90
64855;DHT22;51321;50.428;8.378;2022-12-04T04:33:16;1.20;99.90
64855;DHT22;51321;50.428;8.378;2022-12-04T04:35:45;1.10;99.90
64855;DHT22;51321;50.428;8.378;2022-12-04T04:38:13;1.10;99.90
64855;DHT22;51321;50.428;8.378;2022-12-04T04:40:46;1.10;99.90
64855;DHT22;51321;50.428;8.378;2022-12-04T04:43:15;1.20;99.90
64855;DHT22;51321;50.428;8.378;2022-12-04T04:45:44;1.20;99.90
64855;DHT22;51321;50.428;8.378;2022-12-04T04:48:11;1.20;99.90
64855;DHT22;51321;50.428;8.378;2022-12-04T04:50:40;1.10;99.90
64855;DHT22;51321;50.428;8.378;2022-12-04T04:53:08;1.10;99.90
64855;DHT22;51321;50.428;8.378;2022-12-04T04:55:34;1.20;99.90
64855;DHT22;51321;50.428;8.378;2022-12-04T04:58:07;1.10;99.90
64855;DHT22;51321;50.428;8.378;2022-12-04T05:00:29;1.10;99.90
64855;DHT22;51321;50.428;8.378;2022-12-04T05:02:52;1.00;99.90
64855;DHT22;51321;50.428;8.378;2022-12-04T05:05:17;1.00;99.90
64855;DHT22;51321;50.428;8.378;2022-12-04T05:07:40;1.00;99.90
64855;DHT22;51321;50.428;8.378;2022-12-04T05:10:04;1.00;99.90
64855;DHT22;51321;50.428;8.378;2022-12-04T05:12:27;1.00;99.90
64855;DHT22;51321;50.428;8.378;2022-12-04T05:14:51;1.00;99.90
64855;DHT22;51321;50.428;8.378;2022-12-04T05:17:19;1.00;99.90
64855;DHT22;51321;50.428;8.378;2022-12-04T05:19:43;1.00;99.90
64855;DHT22;51321;50.428;8.378;2022-12-04T05:22:16;1.00;99.90
64855;DHT22;51321;50.428;8.378;2022-12-04T05:24:38;1.10;99.90
64855;DHT22;51321;50.428;8.378;2022-12-04T05:27:04;1.10;99.90
64855;DHT22;51321;50.428;8.378;2022-12-04T05:29:27;1.10;99.90
64855;DHT22;51321;50.428;8.378;2022-12-04T05:31:51;1.10;99.90
64855;DHT22;51321;50.428;8.378;2022-12-04T05:34:13;1.10;99.90
64855;DHT22;51321;50.428;8.378;2022-12-04T05:36:36;1.00;99.90
64855;DHT22;51321;50.428;8.378;2022-12-04T05:39:03;1.00;99.90
64855;DHT22;51321;50.428;8.378;2022-12-04T05:41:25;1.00;99.90
64855;DHT22;51321;50.428;8.378;2022-12-04T05:43:47;1.10;99.90
64855;DHT22;51321;50.428;8.378;2022-12-04T05:46:10;1.10;99.90
64855;DHT22;51321;50.428;8.378;2022-12-04T05:48:34;1.10;99.90
64855;DHT22;51321;50.428;8.378;2022-12-04T05:50:58;1.10;99.90
64855;DHT22;51321;50.428;8.378;2022-12-04T05:53:23;1.10;99.90
64855;DHT22;51321;50.428;8.378;2022-12-04T05:55:53;1.10;99.90
64855;DHT22;51321;50.428;8.378;2022-12-04T05:58:18;1.10;99.90
64855;DHT22;51321;50.428;8.378;2022-12-04T06:00:40;1.10;99.90
64855;DHT22;51321;50.428;8.378;2022-12-04T06:03:05;1.10;99.90
64855;DHT22;51321;50.428;8.378;2022-12-04T06:05:32;1.10;99.90
64855;DHT22;51321;50.428;8.378;2022-12-04T06:07:54;1.00;99.90
64855;DHT22;51321;50.428;8.378;2022-12-04T06:10:17;1.00;99.90
64855;DHT22;51321;50.428;8.378;2022-12-04T06:12:40;1.10;99.90
64855;DHT22;51321;50.428;8.378;2022-12-04T06:15:03;1.10;99.90
64855;DHT22;51321;50.428;8.378;2022-12-04T06:17:26;1.10;99.90
64855;DHT22;51321;50.428;8.378;2022-12-04T06:19:50;1.00;99.90
64855;DHT22;51321;50.428;8.378;2022-12-04T06:22:15;1.00;99.90
64855;DHT22;51321;50.428;8.378;2022-12-04T06:24:38;1.00;99.90
64855;DHT22;51321;50.428;8.378;2022-12-04T06:27:00;1.00;99.90
64855;DHT22;51321;50.428;8.378;2022-12-04T06:29:22;1.00;99.90
64855;DHT22;51321;50.428;8.378;2022-12-04T06:31:45;1.00;99.90
64855;DHT22;51321;50.428;8.378;2022-12-04T06:34:09;1.10;99.90
64855;DHT22;51321;50.428;8.378;2022-12-04T06:36:31;1.20;99.90
64855;DHT22;51321;50.428;8.378;2022-12-04T06:38:56;1.10;99.90
64855;DHT22;51321;50.428;8.378;2022-12-04T06:41:19;1.10;99.90
64855;DHT22;51321;50.428;8.378;2022-12-04T06:43:42;1.10;99.90
64855;DHT22;51321;50.428;8.378;2022-12-04T06:46:06;1.10;99.90
64855;DHT22;51321;50.428;8.378;2022-12-04T06:48:29;1.10;99.90
64855;DHT22;51321;50.428;8.378;2022-12-04T06:50:57;1.10;99.90
64855;DHT22;51321;50.428;8.378;2022-12-04T06:53:19;1.20;99.90
64855;DHT22;51321;50.428;8.378;2022-12-04T06:55:47;1.20;99.90
64855;DHT22;51321;50.428;8.378;2022-12-04T06:58:10;1.10;99.90
64855;DHT22;51321;50.428;8.378;2022-12-04T07:00:32;1.10;99.90
64855;DHT22;51321;50.428;8.378;2022-12-04T07:02:56;1.10;99.90
64855;DHT22;51321;50.428;8.378;2022-12-04T07:05:22;1.20;99.90
64855;DHT22;51321;50.428;8.378;2022-12-04T07:07:44;1.20;99.90
64855;DHT22;51321;50.428;8.378;2022-12-04T07:10:07;1.10;99.90
64855;DHT22;51321;50.428;8.378;2022-12-04T07:12:31;1.10;99.90
64855;DHT22;51321;50.428;8.378;2022-12-04T07:14:53;1.10;99.90
64855;DHT22;51321;50.428;8.378;2022-12-04T07:17:15;1.20;99.90
64855;DHT22;51321;50.428;8.378;2022-12-04T07:19:37;1.20;99.90
64855;DHT22;51321;50.428;8.378;2022-12-04T07:22:00;1.30;99.90
64855;DHT22;51321;50.428;8.378;2022-12-04T07:24:23;1.20;99.90
64855;DHT22;51321;50.428;8.378;2022-12-04T07:26:45;1.20;99.90
64855;DHT22;51321;50.428;8.378;2022-12-04T07:29:09;1.20;99.90
64855;DHT22;51321;50.428;8.378;2022-12-04T07:31:32;1.20;99.90
64855;DHT22;51321;50.428;8.378;2022-12-04T07:33:55;1.20;99.90
64855;DHT22;51321;50.428;8.378;2022-12-04T07:36:19;1.20;99.90
64855;DHT22;51321;50.428;8.378;2022-12-04T07:38:43;1.20;99.90
64855;DHT22;51321;50.428;8.378;2022-12-04T07:41:07;1.30;99.90
64855;DHT22;51321;50.428;8.378;2022-12-04T07:43:31;1.30;99.90
64855;DHT22;51321;50.428;8.378;2022-12-04T07:45:55;1.20;99.90
64855;DHT22;51321;50.428;8.378;2022-12-04T07:48:18;1.30;99.90
64855;DHT22;51321;50.428;8.378;2022-12-04T07:50:41;1.30;99.90
64855;DHT22;51321;50.428;8.378;2022-12-04T07:53:03;1.30;99.90
64855;DHT22;51321;50.428;8.378;2022-12-04T07:55:26;1.30;99.90
64855;DHT22;51321;50.428;8.378;2022-12-04T07:57:49;1.30;99.90
64855;DHT22;51321;50.428;8.378;2022-12-04T08:00:13;1.20;99.90
64855;DHT22;51321;50.428;8.378;2022-12-04T08:02:38;1.30;99.90
64855;DHT22;51321;50.428;8.378;2022-12-04T08:05:02;1.40;99.90
64855;DHT22;51321;50.428;8.378;2022-12-04T08:07:24;1.30;99.90
64855;DHT22;51321;50.428;8.378;2022-12-04T08:09:47;1.30;99.90
64855;DHT22;51321;50.428;8.378;2022-12-04T08:12:10;1.20;99.90
64855;DHT22;51321;50.428;8.378;2022-12-04T08:14:34;1.30;99.90
64855;DHT22;51321;50.428;8.378;2022-12-04T08:16:56;1.30;99.90
64855;DHT22;51321;50.428;8.378;2022-12-04T08:19:23;1.40;99.90
64855;DHT22;51321;50.428;8.378;2022-12-04T08:21:49;1.40;99.90
64855;DHT22;51321;50.428;8.378;2022-12-04T08:24:12;1.40;99.90
64855;DHT22;51321;50.428;8.378;2022-12-04T08:26:35;1.50;99.90
64855;DHT22;51321;50.428;8.378;2022-12-04T08:28:59;1.60;99.90
64855;DHT22;51321;50.428;8.378;2022-12-04T08:31:24;1.60;99.90
64855;DHT22;51321;50.428;8.378;2022-12-04T08:33:48;1.60;99.90
64855;DHT22;51321;50.428;8.378;2022-12-04T08:36:15;1.50;99.90
64855;DHT22;51321;50.428;8.378;2022-12-04T08:38:37;1.60;99.90
64855;DHT22;51321;50.428;8.378;2022-12-04T08:41:03;1.60;99.90
64855;DHT22;51321;50.428;8.378;2022-12-04T08:43:26;1.60;99.90
64855;DHT22;51321;50.428;8.378;2022-12-04T08:45:53;1.60;99.90
64855;DHT22;51321;50.428;8.378;2022-12-04T08:48:15;1.60;99.90
64855;DHT22;51321;50.428;8.378;2022-12-04T08:50:43;1.50;99.90
64855;DHT22;51321;50.428;8.378;2022-12-04T08:53:08;1.50;99.90
64855;DHT22;51321;50.428;8.378;2022-12-04T08:55:30;1.60;99.90
64855;DHT22;51321;50.428;8.378;2022-12-04T08:57:52;1.60;99.90
64855;DHT22;51321;50.428;8.378;2022-12-04T09:00:15;1.60;99.90
64855;DHT22;51321;50.428;8.378;2022-12-04T09:02:38;1.60;99.90
64855;DHT22;51321;50.428;8.378;2022-12-04T09:05:00;1.60;99.90
64855;DHT22;51321;50.428;8.378;2022-12-04T09:07:22;1.60;99.90
64855;DHT22;51321;50.428;8.378;2022-12-04T09:09:46;1.60;99.90
64855;DHT22;51321;50.428;8.378;2022-12-04T09:12:08;1.70;99.90
64855;DHT22;51321;50.428;8.378;2022-12-04T09:14:32;1.70;99.90
64855;DHT22;51321;50.428;8.378;2022-12-04T09:16:58;1.70;99.90
64855;DHT22;51321;50.428;8.378;2022-12-04T09:19:20;1.60;99.90
64855;DHT22;51321;50.428;8.378;2022-12-04T09:21:42;1.60;99.90
64855;DHT22;51321;50.428;8.378;2022-12-04T09:24:05;1.60;99.90
64855;DHT22;51321;50.428;8.378;2022-12-04T09:26:29;1.60;99.90
64855;DHT22;51321;50.428;8.378;2022-12-04T09:28:54;1.70;99.90
64855;DHT22;51321;50.428;8.378;2022-12-04T09:31:17;1.70;99.90
64855;DHT22;51321;50.428;8.378;2022-12-04T09:33:39;1.70;99.90
64855;DHT22;51321;50.428;8.378;2022-12-04T09:36:03;1.70;99.90
64855;DHT22;51321;50.428;8.378;2022-12-04T09:38:26;1.60;99.90
64855;DHT22;51321;50.428;8.378;2022-12-04T09:40:53;1.60;99.90
64855;DHT22;51321;50.428;8.378;2022-12-04T09:43:28;1.70;99.90
64855;DHT22;51321;50.428;8.378;2022-12-04T09:45:55;1.70;99.90
64855;DHT22;51321;50.428;8.378;2022-12-04T09:48:21;1.70;99.90
64855;DHT22;51321;50.428;8.378;2022-12-04T09:50:49;1.70;99.90
64855;DHT22;51321;50.428;8.378;2022-12-04T09:53:14;1.70;99.90
64855;DHT22;51321;50.428;8.378;2022-12-04T09:55:42;1.70;99.90
64855;DHT22;51321;50.428;8.378;2022-12-04T09:58:10;1.80;99.90
64855;DHT22;51321;50.428;8.378;2022-12-04T10:00:39;1.90;99.90
64855;DHT22;51321;50.428;8.378;2022-12-04T10:03:03;1.90;99.90
64855;DHT22;51321;50.428;8.378;2022-12-04T10:05:38;1.90;99.90
64855;DHT22;51321;50.428;8.378;2022-12-04T10:08:09;1.80;99.90
64855;DHT22;51321;50.428;8.378;2022-12-04T10:10:36;1.80;99.90
64855;DHT22;51321;50.428;8.378;2022-12-04T10:13:08;1.90;99.90
64855;DHT22;51321;50.428;8.378;2022-12-04T10:15:39;1.90;99.90
64855;DHT22;51321;50.428;8.378;2022-12-04T10:18:14;2.00;99.90
64855;DHT22;51321;50.428;8.378;2022-12-04T10:20:47;1.90;99.90
64855;DHT22;51321;50.428;8.378;2022-12-04T10:23:20;1.80;99.90
64855;DHT22;51321;50.428;8.378;2022-12-04T10:25:46;1.80;99.90
64855;DHT22;51321;50.428;8.378;2022-12-04T10:28:20;1.90;99.90
64855;DHT22;51321;50.428;8.378;2022-12-04T10:30:46;1.90;99.90
64855;DHT22;51321;50.428;8.378;2022-12-04T10:33:15;1.90;99.90
64855;DHT22;51321;50.428;8.378;2022-12-04T10:35:41;1.90;99.90
64855;DHT22;51321;50.428;8.378;2022-12-04T10:38:10;2.00;99.90
64855;DHT22;51321;50.428;8.378;2022-12-04T10:40:39;2.00;99.90
64855;DHT22;51321;50.428;8.378;2022-12-04T10:43:12;2.00;99.90
64855;DHT22;51321;50.428;8.378;2022-12-04T10:45:36;2.10;99.90
64855;DHT22;51321;50.428;8.378;2022-12-04T10:48:01;2.10;99.90
64855;DHT22;51321;50.428;8.378;2022-12-04T10:50:24;2.20;99.90
64855;DHT22;51321;50.428;8.378;2022-12-04T10:52:46;2.20;99.90
64855;DHT22;51321;50.428;8.378;2022-12-04T10:55:12;2.30;99.90
64855;DHT22;51321;50.428;8.378;2022-12-04T10:57:37;2.20;99.90
64855;DHT22;51321;50.428;8.378;2022-12-04T11:00:00;2.30;99.90
64855;DHT22;51321;50.428;8.378;2022-12-04T11:02:25;2.10;99.90
64855;DHT22;51321;50.428;8.378;2022-12-04T11:04:56;2.00;99.90
64855;DHT22;51321;50.428;8.378;2022-12-04T11:07:20;2.00;99.90
64855;DHT22;51321;50.428;8.378;2022-12-04T11:09:43;2.10;99.90
64855;DHT22;51321;50.428;8.378;2022-12-04T11:12:17;2.00;99.90
64855;DHT22;51321;50.428;8.378;2022-12-04T11:14:40;2.10;99.90
64855;DHT22;51321;50.428;8.378;2022-12-04T11:17:04;2.10;99.90
64855;DHT22;51321;50.428;8.378;2022-12-04T11:19:32;2.10;99.90
64855;DHT22;51321;50.428;8.378;2022-12-04T11:22:12;2.10;99.90
64855;DHT22;51321;50.428;8.378;2022-12-04T11:24:36;2.10;99.90
64855;DHT22;51321;50.428;8.378;2022-12-04T11:27:00;2.10;99.90
64855;DHT22;51321;50.428;8.378;2022-12-04T11:29:30;2.10;99.90
64855;DHT22;51321;50.428;8.378;2022-12-04T11:31:54;2.20;99.90
64855;DHT22;51321;50.428;8.378;2022-12-04T11:34:19;2.20;99.90
64855;DHT22;51321;50.428;8.378;2022-12-04T11:36:49;2.20;99.90
64855;DHT22;51321;50.428;8.378;2022-12-04T11:39:18;2.10;99.90
64855;DHT22;51321;50.428;8.378;2022-12-04T11:41:41;2.10;99.90
64855;DHT22;51321;50.428;8.378;2022-12-04T11:44:05;2.10;99.90
64855;DHT22;51321;50.428;8.378;2022-12-04T11:46:29;2.00;99.90
64855;DHT22;51321;50.428;8.378;2022-12-04T11:48:53;2.00;99.90
64855;DHT22;51321;50.428;8.378;2022-12-04T11:51:27;2.00;99.90
64855;DHT22;51321;50.428;8.378;2022-12-04T11:53:57;2.00;99.90
64855;DHT22;51321;50.428;8.378;2022-12-04T11:56:25;2.00;99.90
64855;DHT22;51321;50.428;8.378;2022-12-04T11:59:17;2.10;99.90
64855;DHT22;51321;50.428;8.378;2022-12-04T12:01:50;2.00;99.90
64855;DHT22;51321;50.428;8.378;2022-12-04T12:04:48;2.10;99.90
64855;DHT22;51321;50.428;8.378;2022-12-04T12:07:26;2.10;99.90
64855;DHT22;51321;50.428;8.378;2022-12-04T12:09:57;2.00;99.90
64855;DHT22;51321;50.428;8.378;2022-12-04T12:12:35;2.10;99.90
64855;DHT22;51321;50.428;8.378;2022-12-04T12:15:06;2.10;99.90
64855;DHT22;51321;50.428;8.378;2022-12-04T12:17:40;2.20;99.90
64855;DHT22;51321;50.428;8.378;2022-12-04T12:20:13;2.20;99.90
64855;DHT22;51321;50.428;8.378;2022-12-04T12:25:26;2.40;99.90
64855;DHT22;51321;50.428;8.378;2022-12-04T12:28:15;2.40;99.90
64855;DHT22;51321;50.428;8.378;2022-12-04T12:30:52;2.30;99.90
64855;DHT22;51321;50.428;8.378;2022-12-04T12:33:18;2.30;99.90
64855;DHT22;51321;50.428;8.378;2022-12-04T12:35:56;2.30;99.90
64855;DHT22;51321;50.428;8.378;2022-12-04T12:38:23;2.40;99.90
64855;DHT22;51321;50.428;8.378;2022-12-04T12:40:48;2.30;99.90
64855;DHT22;51321;50.428;8.378;2022-12-04T12:43:15;2.40;99.90
64855;DHT22;51321;50.428;8.378;2022-12-04T12:45:44;2.40;99.90
64855;DHT22;51321;50.428;8.378;2022-12-04T12:48:24;2.50;99.90
64855;DHT22;51321;50.428;8.378;2022-12-04T12:50:50;2.50;99.90
64855;DHT22;51321;50.428;8.378;2022-12-04T12:53:18;2.50;99.90
64855;DHT22;51321;50.428;8.378;2022-12-04T12:55:44;2.60;99.90
64855;DHT22;51321;50.428;8.378;2022-12-04T12:58:12;2.50;99.90
64855;DHT22;51321;50.428;8.378;2022-12-04T13:00:41;2.50;99.90
64855;DHT22;51321;50.428;8.378;2022-12-04T13:03:15;2.50;99.90
64855;DHT22;51321;50.428;8.378;2022-12-04T13:05:45;2.40;99.90
64855;DHT22;51321;50.428;8.378;2022-12-04T13:08:15;2.40;99.90
64855;DHT22;51321;50.428;8.378;2022-12-04T13:10:42;2.40;99.90
64855;DHT22;51321;50.428;8.378;2022-12-04T13:13:07;2.40;99.90
64855;DHT22;51321;50.428;8.378;2022-12-04T13:15:35;2.40;99.90
64855;DHT22;51321;50.428;8.378;2022-12-04T13:18:06;2.30;99.90
64855;DHT22;51321;50.428;8.378;2022-12-04T13:20:32;2.30;99.90
64855;DHT22;51321;50.428;8.378;2022-12-04T13:23:15;2.20;99.90
64855;DHT22;51321;50.428;8.378;2022-12-04T13:25:47;2.30;99.90
64855;DHT22;51321;50.428;8.378;2022-12-04T13:28:22;2.30;99.90
64855;DHT22;51321;50.428;8.378;2022-12-04T13:30:49;2.40;99.90
64855;DHT22;51321;50.428;8.378;2022-12-04T13:36:24;2.40;99.90
64855;DHT22;51321;50.428;8.378;2022-12-04T13:39:01;2.40;99.90
64855;DHT22;51321;50.428;8.378;2022-12-04T13:41:28;2.40;99.90
64855;DHT22;51321;50.428;8.378;2022-12-04T13:43:53;2.40;99.90
64855;DHT22;51321;50.428;8.378;2022-12-04T13:46:28;2.40;99.90
64855;DHT22;51321;50.428;8.378;2022-12-04T13:48:52;2.40;99.90
64855;DHT22;51321;50.428;8.378;2022-12-04T13:51:32;2.40;99.90
64855;DHT22;51321;50.428;8.378;2022-12-04T13:54:19;2.40;99.90
64855;DHT22;51321;50.428;8.378;2022-12-04T13:56:45;2.50;99.90
64855;DHT22;51321;50.428;8.378;2022-12-04T13:59:21;2.50;99.90
64855;DHT22;51321;50.428;8.378;2022-12-04T14:01:45;2.50;99.90
64855;DHT22;51321;50.428;8.378;2022-12-04T14:04:24;2.50;99.90
64855;DHT22;51321;50.428;8.378;2022-12-04T14:06:51;2.50;99.90
64855;DHT22;51321;50.428;8.378;2022-12-04T14:09:19;2.60;99.90
64855;DHT22;51321;50.428;8.378;2022-12-04T14:11:44;2.60;99.90
64855;DHT22;51321;50.428;8.378;2022-12-04T14:14:23;2.50;99.90
64855;DHT22;51321;50.428;8.378;2022-12-04T14:16:47;2.50;99.90
64855;DHT22;51321;50.428;8.378;2022-12-04T14:19:28;2.50;99.90
64855;DHT22;51321;50.428;8.378;2022-12-04T14:21:59;2.60;99.90
64855;DHT22;51321;50.428;8.378;2022-12-04T14:24:28;2.50;99.90
64855;DHT22;51321;50.428;8.378;2022-12-04T14:26:51;2.50;99.90
64855;DHT22;51321;50.428;8.378;2022-12-04T14:29:40;2.50;99.90
64855;DHT22;51321;50.428;8.378;2022-12-04T14:32:12;2.50;99.90
64855;DHT22;51321;50.428;8.378;2022-12-04T14:34:36;2.50;99.90
64855;DHT22;51321;50.428;8.378;2022-12-04T14:37:19;2.50;99.90
64855;DHT22;51321;50.428;8.378;2022-12-04T14:39:44;2.50;99.90
64855;DHT22;51321;50.428;8.378;2022-12-04T14:42:13;2.50;99.90
64855;DHT22;51321;50.428;8.378;2022-12-04T14:44:36;2.50;99.90
64855;DHT22;51321;50.428;8.378;2022-12-04T14:47:06;2.50;99.90
64855;DHT22;51321;50.428;8.378;2022-12-04T14:49:39;2.40;99.90
64855;DHT22;51321;50.428;8.378;2022-12-04T14:52:08;2.40;99.90
64855;DHT22;51321;50.428;8.378;2022-12-04T14:54:42;2.40;99.90
64855;DHT22;51321;50.428;8.378;2022-12-04T14:57:23;2.50;99.90
64855;DHT22;51321;50.428;8.378;2022-12-04T14:59:52;2.40;99.90
64855;DHT22;51321;50.428;8.378;2022-12-04T15:02:17;2.40;99.90
64855;DHT22;51321;50.428;8.378;2022-12-04T15:04:40;2.50;99.90
64855;DHT22;51321;50.428;8.378;2022-12-04T15:07:05;2.40;99.90
64855;DHT22;51321;50.428;8.378;2022-12-04T15:09:29;2.40;99.90
64855;DHT22;51321;50.428;8.378;2022-12-04T15:12:23;2.40;99.90
64855;DHT22;51321;50.428;8.378;2022-12-04T15:14:59;2.40;99.90
64855;DHT22;51321;50.428;8.378;2022-12-04T15:17:23;2.40;99.90
64855;DHT22;51321;50.428;8.378;2022-12-04T15:19:46;2.50;99.90
64855;DHT22;51321;50.428;8.378;2022-12-04T15:22:12;2.40;99.90
64855;DHT22;51321;50.428;8.378;2022-12-04T15:24:38;2.40;99.90
64855;DHT22;51321;50.428;8.378;2022-12-04T15:27:03;2.40;99.90
64855;DHT22;51321;50.428;8.378;2022-12-04T15:29:35;2.40;99.90
64855;DHT22;51321;50.428;8.378;2022-12-04T15:32:04;2.40;99.90
64855;DHT22;51321;50.428;8.378;2022-12-04T15:34:34;2.40;99.90
64855;DHT22;51321;50.428;8.378;2022-12-04T15:37:02;2.40;99.90
64855;DHT22;51321;50.428;8.378;2022-12-04T15:39:28;2.50;99.90
64855;DHT22;51321;50.428;8.378;2022-12-04T15:42:03;2.50;99.90
64855;DHT22;51321;50.428;8.378;2022-12-04T15:44:30;2.50;99.90
64855;DHT22;51321;50.428;8.378;2022-12-04T15:46:56;2.50;99.90
64855;DHT22;51321;50.428;8.378;2022-12-04T15:49:24;2.50;99.90